sensor_id;sensor_type;location;lat;lon;timestamp;pressure;altitude;pressure_sealevel;temperature;humidity
8360;BME280;4217;48.762;11.428;2022-12-20T00:09:56;98342.75;;;3.77;60.81
8360;BME280;4217;48.762;11.428;2022-12-20T00:19:58;98331.94;;;3.50;61.38
8360;BME280;4217;48.762;11.428;2022-12-20T00:29:59;98342.09;;;3.60;61.38
8360;BME280;4217;48.762;11.428;2022-12-20T00:40:03;98319.31;;;3.77;60.95
8360;BME280;4217;48.762;11.428;2022-12-20T00:50:10;98312.06;;;3.72;61.21
8360;BME280;4217;48.762;11.428;2022-12-20T01:00:12;98341.91;;;3.61;61.31
8360;BME280;4217;48.762;11.428;2022-12-20T01:10:14;98324.66;;;3.46;62.16
8360;BME280;4217;48.762;11.428;2022-12-20T01:20:16;98333.31;;;3.76;61.23
8360;BME280;4217;48.762;11.428;2022-12-20T01:30:17;98296.09;;;3.60;60.99
8360;BME280;4217;48.762;11.428;2022-12-20T01:40:19;98306.41;;;3.31;61.72
8360;BME280;4217;48.762;11.428;2022-12-20T01:50:22;98298.19;;;3.28;62.13
8360;BME280;4217;48.762;11.428;2022-12-20T02:00:24;98326.66;;;3.21;61.90
8360;BME280;4217;48.762;11.428;2022-12-20T02:10:39;98333.19;;;3.17;61.67
8360;BME280;4217;48.762;11.428;2022-12-20T02:31:10;98304.13;;;3.51;60.94
8360;BME280;4217;48.762;11.428;2022-12-20T02:41:26;98283.78;;;3.40;61.66
8360;BME280;4217;48.762;11.428;2022-12-20T02:51:31;98269.06;;;3.61;61.17
8360;BME280;4217;48.762;11.428;2022-12-20T03:01:40;98256.59;;;3.42;61.60
8360;BME280;4217;48.762;11.428;2022-12-20T03:11:45;98247.13;;;3.64;61.05
8360;BME280;4217;48.762;11.428;2022-12-20T03:21:46;98254.56;;;3.52;60.98
8360;BME280;4217;48.762;11.428;2022-12-20T03:31:48;98248.91;;;3.64;60.91
8360;BME280;4217;48.762;11.428;2022-12-20T03:41:50;98264.41;;;3.57;61.05
8360;BME280;4217;48.762;11.428;2022-12-20T03:51:52;98231.41;;;3.57;60.82
8360;BME280;4217;48.762;11.428;2022-12-20T04:01:54;98236.34;;;3.52;60.84
8360;BME280;4217;48.762;11.428;2022-12-20T04:11:56;98216.88;;;3.48;60.79
8360;BME280;4217;48.762;11.428;2022-12-20T04:21:57;98202.19;;;3.41;60.41
8360;BME280;4217;48.762;11.428;2022-12-20T04:32:19;98228.63;;;3.44;60.67
8360;BME280;4217;48.762;11.428;2022-12-20T04:42:21;98224.34;;;3.51;61.10
8360;BME280;4217;48.762;11.428;2022-12-20T04:52:24;98205.06;;;3.46;61.28
8360;BME280;4217;48.762;11.428;2022-12-20T05:02:48;98193.84;;;3.45;61.56
8360;BME280;4217;48.762;11.428;2022-12-20T05:12:54;98180.69;;;3.47;61.54
8360;BME280;4217;48.762;11.428;2022-12-20T05:23:07;98173.84;;;3.46;61.56
8360;BME280;4217;48.762;11.428;2022-12-20T05:33:37;98152.69;;;3.49;61.79
8360;BME280;4217;48.762;11.428;2022-12-20T05:43:39;98153.16;;;3.52;61.45
8360;BME280;4217;48.762;11.428;2022-12-20T05:53:41;98177.34;;;3.53;61.45
8360;BME280;4217;48.762;11.428;2022-12-20T06:03:43;98178.50;;;3.36;61.80
8360;BME280;4217;48.762;11.428;2022-12-20T06:13:49;98180.03;;;3.45;61.36
8360;BME280;4217;48.762;11.428;2022-12-20T06:23:51;98152.41;;;3.44;61.79
8360;BME280;4217;48.762;11.428;2022-12-20T06:33:54;98133.75;;;3.55;61.76
8360;BME280;4217;48.762;11.428;2022-12-20T06:43:59;98138.38;;;3.74;61.75
8360;BME280;4217;48.762;11.428;2022-12-20T06:54:01;98151.31;;;3.68;61.73
8360;BME280;4217;48.762;11.428;2022-12-20T07:04:05;98141.53;;;3.84;61.17
8360;BME280;4217;48.762;11.428;2022-12-20T07:14:07;98150.78;;;3.87;60.95
8360;BME280;4217;48.762;11.428;2022-12-20T07:24:09;98146.09;;;3.68;61.67
8360;BME280;4217;48.762;11.428;2022-12-20T07:34:10;98155.00;;;3.73;61.67
8360;BME280;4217;48.762;11.428;2022-12-20T07:44:12;98174.94;;;4.02;61.20
8360;BME280;4217;48.762;11.428;2022-12-20T07:54:24;98170.13;;;3.99;61.24
8360;BME280;4217;48.762;11.428;2022-12-20T08:04:27;98178.81;;;4.27;60.90
8360;BME280;4217;48.762;11.428;2022-12-20T08:14:31;98153.59;;;4.49;60.36
8360;BME280;4217;48.762;11.428;2022-12-20T08:24:32;98160.03;;;4.74;60.11
8360;BME280;4217;48.762;11.428;2022-12-20T08:34:35;98129.97;;;4.72;59.74
8360;BME280;4217;48.762;11.428;2022-12-20T08:44:36;98130.41;;;5.10;59.10
8360;BME280;4217;48.762;11.428;2022-12-20T08:54:38;98114.66;;;5.25;58.51
8360;BME280;4217;48.762;11.428;2022-12-20T09:04:39;98132.34;;;5.70;58.15
8360;BME280;4217;48.762;11.428;2022-12-20T09:14:40;98114.31;;;5.82;57.15
8360;BME280;4217;48.762;11.428;2022-12-20T09:24:43;98087.59;;;5.80;57.13
8360;BME280;4217;48.762;11.428;2022-12-20T09:34:44;98067.22;;;6.03;57.08
8360;BME280;4217;48.762;11.428;2022-12-20T09:44:47;98104.41;;;6.45;56.21
8360;BME280;4217;48.762;11.428;2022-12-20T10:05:13;98081.97;;;7.34;54.80
8360;BME280;4217;48.762;11.428;2022-12-20T10:15:24;98039.13;;;8.36;53.05
8360;BME280;4217;48.762;11.428;2022-12-20T10:25:31;98030.47;;;9.33;51.19
8360;BME280;4217;48.762;11.428;2022-12-20T10:35:39;98019.63;;;9.11;49.72
8360;BME280;4217;48.762;11.428;2022-12-20T10:45:41;98015.81;;;9.26;48.95
8360;BME280;4217;48.762;11.428;2022-12-20T10:55:43;97998.88;;;8.92;49.65
8360;BME280;4217;48.762;11.428;2022-12-20T11:06:02;97984.03;;;9.34;48.27
8360;BME280;4217;48.762;11.428;2022-12-20T11:16:05;97959.84;;;9.73;47.75
8360;BME280;4217;48.762;11.428;2022-12-20T11:36:57;97922.00;;;8.73;48.91
8360;BME280;4217;48.762;11.428;2022-12-20T11:57:31;97918.81;;;8.71;49.57
8360;BME280;4217;48.762;11.428;2022-12-20T12:08:00;97904.66;;;9.20;48.94
8360;BME280;4217;48.762;11.428;2022-12-20T12:18:15;97879.53;;;8.83;49.60
8360;BME280;4217;48.762;11.428;2022-12-20T12:28:19;97890.47;;;8.61;50.04
8360;BME280;4217;48.762;11.428;2022-12-20T13:09:10;97866.75;;;8.86;50.60
8360;BME280;4217;48.762;11.428;2022-12-20T13:19:34;97855.84;;;8.89;50.30
8360;BME280;4217;48.762;11.428;2022-12-20T13:29:51;97840.66;;;8.61;50.90
8360;BME280;4217;48.762;11.428;2022-12-20T13:39:54;97821.44;;;8.13;52.28
8360;BME280;4217;48.762;11.428;2022-12-20T13:49:59;97832.94;;;7.93;52.96
8360;BME280;4217;48.762;11.428;2022-12-20T14:00:04;97840.47;;;7.83;53.22
8360;BME280;4217;48.762;11.428;2022-12-20T14:10:18;97839.81;;;7.88;53.50
8360;BME280;4217;48.762;11.428;2022-12-20T14:20:32;97817.66;;;7.66;54.43
8360;BME280;4217;48.762;11.428;2022-12-20T14:30:41;97786.53;;;8.00;53.67
8360;BME280;4217;48.762;11.428;2022-12-20T14:40:46;97774.84;;;7.60;54.74
8360;BME280;4217;48.762;11.428;2022-12-20T14:50:54;97802.16;;;6.83;56.65
8360;BME280;4217;48.762;11.428;2022-12-20T15:11:20;97799.66;;;7.01;55.99
8360;BME280;4217;48.762;11.428;2022-12-20T15:21:30;97768.53;;;6.93;56.59
8360;BME280;4217;48.762;11.428;2022-12-20T15:31:34;97770.63;;;6.78;56.98
8360;BME280;4217;48.762;11.428;2022-12-20T15:41:36;97764.81;;;6.76;57.05
8360;BME280;4217;48.762;11.428;2022-12-20T15:51:40;97767.19;;;6.46;58.52
8360;BME280;4217;48.762;11.428;2022-12-20T16:01:44;97782.22;;;6.51;58.35
8360;BME280;4217;48.762;11.428;2022-12-20T16:11:46;97784.63;;;6.52;58.46
8360;BME280;4217;48.762;11.428;2022-12-20T16:21:50;97789.06;;;6.52;58.63
8360;BME280;4217;48.762;11.428;2022-12-20T16:31:52;97773.75;;;6.62;58.47
8360;BME280;4217;48.762;11.428;2022-12-20T16:41:54;97769.13;;;6.57;58.78
8360;BME280;4217;48.762;11.428;2022-12-20T16:51:55;97743.69;;;6.46;59.05
8360;BME280;4217;48.762;11.428;2022-12-20T17:01:57;97729.00;;;6.45;59.37
8360;BME280;4217;48.762;11.428;2022-12-20T17:11:59;97730.13;;;6.24;60.05
8360;BME280;4217;48.762;11.428;2022-12-20T17:22:00;97735.66;;;6.03;60.85
8360;BME280;4217;48.762;11.428;2022-12-20T17:32:22;97747.22;;;6.20;61.35
8360;BME280;4217;48.762;11.428;2022-12-20T17:42:26;97757.34;;;6.48;60.12
8360;BME280;4217;48.762;11.428;2022-12-20T17:52:32;97768.84;;;6.34;60.17
8360;BME280;4217;48.762;11.428;2022-12-20T18:02:33;97736.00;;;6.13;60.65
8360;BME280;4217;48.762;11.428;2022-12-20T18:12:35;97737.03;;;6.06;61.23
8360;BME280;4217;48.762;11.428;2022-12-20T18:22:38;97740.22;;;6.14;60.63
8360;BME280;4217;48.762;11.428;2022-12-20T18:32:39;97731.97;;;6.11;61.79
8360;BME280;4217;48.762;11.428;2022-12-20T18:42:41;97745.59;;;6.19;61.68
8360;BME280;4217;48.762;11.428;2022-12-20T18:52:42;97729.91;;;6.26;61.27
8360;BME280;4217;48.762;11.428;2022-12-20T19:02:47;97719.06;;;5.65;62.68
8360;BME280;4217;48.762;11.428;2022-12-20T19:12:49;97712.56;;;5.87;62.21
8360;BME280;4217;48.762;11.428;2022-12-20T19:22:54;97679.50;;;5.68;62.83
8360;BME280;4217;48.762;11.428;2022-12-20T19:32:55;97665.75;;;5.98;62.79
8360;BME280;4217;48.762;11.428;2022-12-20T19:42:57;97650.34;;;5.97;62.92
8360;BME280;4217;48.762;11.428;2022-12-20T19:52:58;97637.72;;;5.81;63.26
8360;BME280;4217;48.762;11.428;2022-12-20T20:03:00;97641.13;;;5.88;62.89
8360;BME280;4217;48.762;11.428;2022-12-20T20:13:02;97645.53;;;5.94;62.31
8360;BME280;4217;48.762;11.428;2022-12-20T20:23:04;97640.50;;;5.86;62.75
8360;BME280;4217;48.762;11.428;2022-12-20T20:33:06;97650.16;;;5.79;62.85
8360;BME280;4217;48.762;11.428;2022-12-20T20:43:08;97629.84;;;5.94;62.42
8360;BME280;4217;48.762;11.428;2022-12-20T20:53:10;97622.06;;;5.87;62.52
8360;BME280;4217;48.762;11.428;2022-12-20T21:03:12;97602.78;;;5.82;62.13
8360;BME280;4217;48.762;11.428;2022-12-20T21:13:14;97615.00;;;5.94;62.35
8360;BME280;4217;48.762;11.428;2022-12-20T21:23:15;97615.63;;;5.90;62.46
8360;BME280;4217;48.762;11.428;2022-12-20T21:33:17;97633.69;;;5.85;62.25
8360;BME280;4217;48.762;11.428;2022-12-20T21:43:18;97624.59;;;6.00;62.01
8360;BME280;4217;48.762;11.428;2022-12-20T21:53:20;97632.31;;;5.89;62.38
8360;BME280;4217;48.762;11.428;2022-12-20T22:03:22;97651.13;;;5.91;62.53
8360;BME280;4217;48.762;11.428;2022-12-20T22:13:25;97655.34;;;5.92;62.56
8360;BME280;4217;48.762;11.428;2022-12-20T22:23:27;97651.56;;;6.26;62.03
8360;BME280;4217;48.762;11.428;2022-12-20T22:33:28;97631.88;;;5.92;62.82
8360;BME280;4217;48.762;11.428;2022-12-20T22:43:30;97656.31;;;5.97;62.52
8360;BME280;4217;48.762;11.428;2022-12-20T22:53:32;97661.78;;;6.34;61.74
8360;BME280;4217;48.762;11.428;2022-12-20T23:03:34;97661.28;;;6.44;61.45
8360;BME280;4217;48.762;11.428;2022-12-20T23:13:38;97648.22;;;6.44;61.33
8360;BME280;4217;48.762;11.428;2022-12-20T23:23:58;97615.00;;;5.94;62.91
8360;BME280;4217;48.762;11.428;2022-12-20T23:34:00;97610.19;;;5.91;62.84
8360;BME280;4217;48.762;11.428;2022-12-20T23:44:03;97581.72;;;5.83;62.59
8360;BME280;4217;48.762;11.428;2022-12-20T23:54:05;97594.44;;;6.05;62.24
